createdAt,value
2018-09-11T00:00:11.025Z,0
2018-09-11T00:00:43.067Z,0
2018-09-11T00:01:15.131Z,0
2018-09-11T00:01:47.182Z,0
2018-09-11T00:02:19.217Z,0
2018-09-11T00:02:51.437Z,0
2018-09-11T00:03:23.597Z,0
2018-09-11T00:03:55.636Z,0
2018-09-11T00:04:27.671Z,0
2018-09-11T00:04:59.711Z,0
2018-09-11T00:05:31.782Z,0
2018-09-11T00:06:05.167Z,0
2018-09-11T00:06:37.179Z,0
2018-09-11T00:07:09.273Z,0
2018-09-11T00:07:41.289Z,0
2018-09-11T00:08:13.334Z,0
2018-09-11T00:08:45.415Z,0
2018-09-11T00:09:17.467Z,0
2018-09-11T00:09:49.541Z,0
2018-09-11T00:10:21.597Z,0
2018-09-11T00:10:53.616Z,0
2018-09-11T00:11:25.707Z,0
2018-09-11T00:11:57.772Z,0
2018-09-11T00:12:29.853Z,0
2018-09-11T00:13:01.898Z,0
2018-09-11T00:13:33.938Z,0
2018-09-11T00:14:06.066Z,0
2018-09-11T00:14:38.145Z,0
2018-09-11T00:15:10.174Z,0
2018-09-11T00:15:42.250Z,0
2018-09-11T00:16:14.289Z,0
2018-09-11T00:16:46.370Z,0
2018-09-11T00:17:18.434Z,0
2018-09-11T00:17:50.511Z,0
2018-09-11T00:18:22.677Z,0
2018-09-11T00:18:54.751Z,0
2018-09-11T00:19:26.832Z,0
2018-09-11T00:19:58.878Z,0
2018-09-11T00:20:31.401Z,0
2018-09-11T00:21:03.528Z,0
2018-09-11T00:21:35.521Z,0
2018-09-11T00:22:07.574Z,0
2018-09-11T00:22:39.708Z,0
2018-09-11T00:23:11.757Z,0
2018-09-11T00:23:43.833Z,0
2018-09-11T00:24:15.894Z,0
2018-09-11T00:24:47.969Z,0
2018-09-11T00:25:20.060Z,0
2018-09-11T00:25:52.113Z,0
2018-09-11T00:26:24.184Z,0
2018-09-11T00:26:56.249Z,0
2018-09-11T00:27:28.319Z,0
2018-09-11T00:28:00.465Z,0
2018-09-11T00:28:32.644Z,0
2018-09-11T00:29:04.674Z,0
2018-09-11T00:29:36.701Z,0
2018-09-11T00:30:08.733Z,0
2018-09-11T00:30:40.808Z,0
2018-09-11T00:31:12.883Z,0
2018-09-11T00:31:44.944Z,0
2018-09-11T00:32:16.983Z,0
2018-09-11T00:32:49.126Z,0
2018-09-11T00:33:21.201Z,0
2018-09-11T00:33:53.283Z,0
2018-09-11T00:34:25.458Z,0
2018-09-11T00:34:57.568Z,0
2018-09-11T00:35:29.583Z,0
2018-09-11T00:36:01.626Z,0
2018-09-11T00:36:33.678Z,0
2018-09-11T00:37:05.806Z,0
2018-09-11T00:37:37.864Z,0
2018-09-11T00:38:09.948Z,0
2018-09-11T00:38:42.022Z,0
2018-09-11T00:39:14.083Z,0
2018-09-11T00:39:46.175Z,0
2018-09-11T00:40:18.328Z,0
2018-09-11T00:40:50.424Z,0
2018-09-11T00:41:22.428Z,0
2018-09-11T00:41:54.518Z,0
2018-09-11T00:42:26.582Z,0
2018-09-11T00:42:58.639Z,0
2018-09-11T00:43:30.721Z,0
2018-09-11T00:44:02.786Z,0
2018-09-11T00:44:34.922Z,0
2018-09-11T00:45:06.954Z,0
2018-09-11T00:45:39.002Z,0
2018-09-11T00:46:11.048Z,0
2018-09-11T00:46:43.215Z,0
2018-09-11T00:47:15.950Z,0
2018-09-11T00:47:47.976Z,0
2018-09-11T00:48:20.026Z,0
2018-09-11T00:48:52.072Z,0
2018-09-11T00:49:24.152Z,0
2018-09-11T00:49:56.217Z,0
2018-09-11T00:50:28.282Z,0
2018-09-11T00:51:00.321Z,0
2018-09-11T00:51:32.376Z,0
2018-09-11T00:52:04.432Z,0
2018-09-11T00:52:36.427Z,0
2018-09-11T00:53:08.500Z,0
2018-09-11T00:53:40.591Z,0
2018-09-11T00:54:12.686Z,0
2018-09-11T00:54:44.814Z,0
2018-09-11T00:55:16.949Z,0
2018-09-11T00:55:49.027Z,0
2018-09-11T00:56:21.027Z,0
2018-09-11T00:56:53.064Z,0
2018-09-11T00:57:25.115Z,0
2018-09-11T00:57:57.952Z,0
2018-09-11T00:58:29.997Z,0
2018-09-11T00:59:02.079Z,0
2018-09-11T00:59:34.134Z,0
2018-09-11T01:00:06.280Z,0
2018-09-11T01:00:39.111Z,0
2018-09-11T01:01:11.142Z,0
2018-09-11T01:01:43.195Z,0
2018-09-11T01:02:15.255Z,0
2018-09-11T01:02:47.383Z,0
2018-09-11T01:03:19.552Z,0
2018-09-11T01:03:51.693Z,0
2018-09-11T01:04:23.807Z,0
2018-09-11T01:04:55.881Z,0
2018-09-11T01:05:27.936Z,0
2018-09-11T01:06:00.007Z,0
2018-09-11T01:06:32.059Z,0
2018-09-11T01:07:04.098Z,0
2018-09-11T01:07:36.204Z,0
2018-09-11T01:08:08.239Z,0
2018-09-11T01:08:40.263Z,0
2018-09-11T01:09:13.103Z,0
2018-09-11T01:09:45.285Z,0
2018-09-11T01:10:17.553Z,0
2018-09-11T01:10:49.504Z,0
2018-09-11T01:11:21.514Z,0
2018-09-11T01:11:53.578Z,0
2018-09-11T01:12:25.672Z,0
2018-09-11T01:12:57.717Z,0
2018-09-11T01:13:29.776Z,0
2018-09-11T01:14:01.832Z,0
2018-09-11T01:14:33.934Z,0
2018-09-11T01:15:05.960Z,0
2018-09-11T01:15:38.049Z,0
2018-09-11T01:16:10.068Z,0
2018-09-11T01:16:42.133Z,0
2018-09-11T01:17:14.188Z,0
2018-09-11T01:17:46.249Z,0
2018-09-11T01:18:18.326Z,0
2018-09-11T01:18:50.328Z,0
2018-09-11T01:19:22.359Z,0
2018-09-11T01:19:54.413Z,0
2018-09-11T01:20:26.454Z,0
2018-09-11T01:20:58.541Z,0
2018-09-11T01:21:30.594Z,0
2018-09-11T01:22:02.648Z,0
2018-09-11T01:22:34.691Z,0
2018-09-11T01:23:06.720Z,0
2018-09-11T01:23:39.555Z,0
2018-09-11T01:24:11.629Z,0
2018-09-11T01:24:43.699Z,0
2018-09-11T01:25:15.768Z,0
2018-09-11T01:25:47.817Z,0
2018-09-11T01:26:20.717Z,0
2018-09-11T01:26:52.736Z,0
2018-09-11T01:27:24.807Z,0
2018-09-11T01:27:56.881Z,0
2018-09-11T01:28:28.901Z,0
2018-09-11T01:29:00.943Z,0
2018-09-11T01:29:33.009Z,0
2018-09-11T01:30:05.047Z,0
2018-09-11T01:30:37.051Z,0
2018-09-11T01:31:09.121Z,0
2018-09-11T01:31:41.194Z,0
2018-09-11T01:32:13.259Z,0
2018-09-11T01:32:45.315Z,0
2018-09-11T01:33:17.962Z,0
2018-09-11T01:33:50.033Z,0
2018-09-11T01:34:22.068Z,0
2018-09-11T01:34:54.146Z,0
2018-09-11T01:35:26.235Z,0
2018-09-11T01:35:58.289Z,0
2018-09-11T01:36:30.383Z,0
2018-09-11T01:37:02.442Z,0
2018-09-11T01:37:34.464Z,0
2018-09-11T01:38:06.546Z,0
2018-09-11T01:38:39.121Z,0
2018-09-11T01:39:11.231Z,0
2018-09-11T01:39:43.260Z,0
2018-09-11T01:40:15.396Z,0
2018-09-11T01:40:47.576Z,0
2018-09-11T01:41:19.751Z,0
2018-09-11T01:41:51.806Z,0
2018-09-11T01:42:23.864Z,0
2018-09-11T01:42:55.909Z,0
2018-09-11T01:43:27.988Z,0
2018-09-11T01:44:00.244Z,0
2018-09-11T01:44:32.343Z,0
2018-09-11T01:45:05.213Z,0
2018-09-11T01:45:37.288Z,0
2018-09-11T01:46:09.477Z,0
2018-09-11T01:46:41.556Z,0
2018-09-11T01:47:13.607Z,0
2018-09-11T01:47:45.666Z,0
2018-09-11T01:48:17.736Z,0
2018-09-11T01:48:49.816Z,0
2018-09-11T01:49:21.831Z,0
2018-09-11T01:49:53.876Z,0
2018-09-11T01:50:25.968Z,0
2018-09-11T01:50:57.969Z,0
2018-09-11T01:51:30.027Z,0
2018-09-11T01:52:02.118Z,0
2018-09-11T01:52:34.197Z,0
2018-09-11T01:53:06.306Z,0
2018-09-11T01:53:38.328Z,0
2018-09-11T01:54:10.386Z,0
2018-09-11T01:54:42.437Z,0
2018-09-11T01:55:14.537Z,0
2018-09-11T01:55:47.119Z,0
2018-09-11T01:56:19.143Z,0
2018-09-11T01:56:51.227Z,0
2018-09-11T01:57:23.263Z,0
2018-09-11T01:57:55.306Z,0
2018-09-11T01:58:27.383Z,0
2018-09-11T01:58:59.434Z,0
2018-09-11T01:59:31.493Z,0
2018-09-11T02:00:03.528Z,0
2018-09-11T02:00:35.598Z,0
2018-09-11T02:01:07.673Z,0
2018-09-11T02:01:39.722Z,0
2018-09-11T02:02:11.818Z,0
2018-09-11T02:02:43.896Z,0
2018-09-11T02:03:15.960Z,0
2018-09-11T02:03:48.054Z,0
2018-09-11T02:04:20.136Z,0
2018-09-11T02:04:52.163Z,0
2018-09-11T02:05:24.260Z,0
2018-09-11T02:05:56.321Z,0
2018-09-11T02:06:28.438Z,0
2018-09-11T02:07:00.520Z,0
2018-09-11T02:07:32.546Z,0
2018-09-11T02:08:04.610Z,0
2018-09-11T02:08:36.725Z,0
2018-09-11T02:09:08.840Z,0
2018-09-11T02:09:40.917Z,0
2018-09-11T02:10:12.976Z,0
2018-09-11T02:10:45.069Z,0
2018-09-11T02:11:17.119Z,0
2018-09-11T02:11:49.190Z,0
2018-09-11T02:12:21.186Z,0
2018-09-11T02:12:53.273Z,0
2018-09-11T02:13:26.237Z,0
2018-09-11T02:13:58.287Z,0
2018-09-11T02:14:30.349Z,0
2018-09-11T02:15:02.407Z,0
2018-09-11T02:15:34.447Z,0
2018-09-11T02:16:06.479Z,0
2018-09-11T02:16:38.553Z,0
2018-09-11T02:17:10.614Z,0
2018-09-11T02:17:42.664Z,0
2018-09-11T02:18:14.738Z,0
2018-09-11T02:18:46.780Z,0
2018-09-11T02:19:18.837Z,0
2018-09-11T02:19:50.908Z,0
2018-09-11T02:20:22.971Z,0
2018-09-11T02:20:55.075Z,0
2018-09-11T02:21:27.159Z,0
2018-09-11T02:21:59.240Z,0
2018-09-11T02:22:31.285Z,0
2018-09-11T02:23:03.345Z,0
2018-09-11T02:23:35.391Z,0
2018-09-11T02:24:07.476Z,0
2018-09-11T02:24:39.540Z,0
2018-09-11T02:25:11.675Z,0
2018-09-11T02:25:43.750Z,0
2018-09-11T02:26:15.805Z,0
2018-09-11T02:26:47.857Z,0
2018-09-11T02:27:19.950Z,0
2018-09-11T02:27:52.032Z,0
2018-09-11T02:28:24.131Z,0
2018-09-11T02:28:56.198Z,0
2018-09-11T02:29:28.237Z,0
2018-09-11T02:30:00.315Z,0
2018-09-11T02:30:32.407Z,0
2018-09-11T02:31:04.484Z,0
2018-09-11T02:31:36.515Z,0
2018-09-11T02:32:08.573Z,0
2018-09-11T02:32:40.641Z,0
2018-09-11T02:33:12.729Z,0
2018-09-11T02:33:44.799Z,0
2018-09-11T02:34:16.835Z,0
2018-09-11T02:34:48.977Z,0
2018-09-11T02:35:21.011Z,0
2018-09-11T02:35:53.729Z,0
2018-09-11T02:36:25.695Z,0
2018-09-11T02:36:57.782Z,0
2018-09-11T02:37:29.857Z,0
2018-09-11T02:38:01.931Z,0
2018-09-11T02:38:34.021Z,0
2018-09-11T02:39:06.070Z,0
2018-09-11T02:39:38.140Z,0
2018-09-11T02:40:10.201Z,0
2018-09-11T02:40:42.254Z,0
2018-09-11T02:41:14.264Z,0
2018-09-11T02:41:46.295Z,0
2018-09-11T02:42:19.029Z,0
2018-09-11T02:42:51.079Z,0
2018-09-11T02:43:23.160Z,0
2018-09-11T02:43:55.218Z,0
2018-09-11T02:44:27.428Z,0
2018-09-11T02:44:59.532Z,0
2018-09-11T02:45:31.622Z,0
2018-09-11T02:46:03.668Z,0
2018-09-11T02:46:35.720Z,0
2018-09-11T02:47:07.902Z,0
2018-09-11T02:47:39.977Z,0
2018-09-11T02:48:12.009Z,0
2018-09-11T02:48:44.076Z,0
2018-09-11T02:49:16.085Z,0
2018-09-11T02:49:48.209Z,0
2018-09-11T02:50:20.281Z,0
2018-09-11T02:50:53.120Z,0
2018-09-11T02:51:25.166Z,0
2018-09-11T02:51:57.231Z,0
2018-09-11T02:52:29.308Z,0
2018-09-11T02:53:01.373Z,0
2018-09-11T02:53:33.478Z,0
2018-09-11T02:54:05.624Z,0
2018-09-11T02:54:37.706Z,0
2018-09-11T02:55:09.790Z,0
2018-09-11T02:55:41.853Z,0
2018-09-11T02:56:13.931Z,0
2018-09-11T02:56:46.040Z,0
2018-09-11T02:57:18.667Z,0
2018-09-11T02:57:50.768Z,0
2018-09-11T02:58:22.836Z,0
2018-09-11T02:58:54.907Z,0
2018-09-11T02:59:26.951Z,0
2018-09-11T02:59:59.015Z,0
2018-09-11T03:00:31.083Z,0
2018-09-11T03:01:03.214Z,0
2018-09-11T03:01:35.209Z,0
2018-09-11T03:02:07.247Z,0
2018-09-11T03:02:39.325Z,0
2018-09-11T03:03:11.423Z,0
2018-09-11T03:03:43.461Z,0
2018-09-11T03:04:15.538Z,0
2018-09-11T03:04:47.614Z,0
2018-09-11T03:05:19.690Z,0
2018-09-11T03:05:52.264Z,0
2018-09-11T03:06:24.307Z,0
2018-09-11T03:06:56.349Z,0
2018-09-11T03:07:28.409Z,0
2018-09-11T03:08:00.461Z,0
2018-09-11T03:08:32.507Z,0
2018-09-11T03:09:04.531Z,0
2018-09-11T03:09:36.608Z,0
2018-09-11T03:10:08.698Z,0
2018-09-11T03:10:40.698Z,0
2018-09-11T03:11:12.736Z,0
2018-09-11T03:11:44.870Z,0
2018-09-11T03:12:16.936Z,0
2018-09-11T03:12:49.020Z,0
2018-09-11T03:13:21.089Z,0
2018-09-11T03:13:53.126Z,0
2018-09-11T03:14:25.194Z,0
2018-09-11T03:14:57.281Z,0
2018-09-11T03:15:29.363Z,0
2018-09-11T03:16:01.481Z,0
2018-09-11T03:16:33.551Z,0
2018-09-11T03:17:06.259Z,0
2018-09-11T03:17:38.321Z,0
2018-09-11T03:18:10.412Z,0
2018-09-11T03:18:42.528Z,0
2018-09-11T03:19:14.541Z,0
2018-09-11T03:19:46.611Z,0
2018-09-11T03:20:18.659Z,0
2018-09-11T03:20:50.708Z,0
2018-09-11T03:21:22.756Z,0
2018-09-11T03:21:54.801Z,0
2018-09-11T03:22:26.894Z,0
2018-09-11T03:22:58.946Z,0
2018-09-11T03:23:31.045Z,0
2018-09-11T03:24:03.984Z,0
2018-09-11T03:24:36.049Z,0
2018-09-11T03:25:08.111Z,0
2018-09-11T03:25:40.161Z,0
2018-09-11T03:26:12.213Z,0
2018-09-11T03:26:44.259Z,0
2018-09-11T03:27:16.320Z,0
2018-09-11T03:27:48.360Z,0
2018-09-11T03:28:20.400Z,0
2018-09-11T03:28:52.469Z,0
2018-09-11T03:29:24.528Z,0
2018-09-11T03:29:56.663Z,0
2018-09-11T03:30:28.742Z,0
2018-09-11T03:31:00.800Z,0
2018-09-11T03:31:32.860Z,0
2018-09-11T03:32:05.526Z,0
2018-09-11T03:32:37.703Z,0
2018-09-11T03:33:09.704Z,0
2018-09-11T03:33:41.761Z,0
2018-09-11T03:34:13.793Z,0
2018-09-11T03:34:46.777Z,0
2018-09-11T03:35:18.890Z,0
2018-09-11T03:35:50.929Z,0
2018-09-11T03:36:22.990Z,0
2018-09-11T03:36:55.164Z,0
2018-09-11T03:37:27.191Z,0
2018-09-11T03:37:59.264Z,0
2018-09-11T03:38:31.345Z,0
2018-09-11T03:39:03.450Z,0
2018-09-11T03:39:35.610Z,0
2018-09-11T03:40:07.769Z,0
2018-09-11T03:40:39.774Z,0
2018-09-11T03:41:11.828Z,0
2018-09-11T03:41:43.885Z,0
2018-09-11T03:42:15.951Z,0
2018-09-11T03:42:48.128Z,0
2018-09-11T03:43:20.323Z,0
2018-09-11T03:43:52.416Z,0
2018-09-11T03:44:24.616Z,0
2018-09-11T03:44:56.695Z,0
2018-09-11T03:45:28.761Z,0
2018-09-11T03:46:00.872Z,0
2018-09-11T03:46:32.939Z,0
2018-09-11T03:47:05.031Z,0
2018-09-11T03:47:37.041Z,0
2018-09-11T03:48:09.074Z,0
2018-09-11T03:48:41.127Z,0
2018-09-11T03:49:13.190Z,0
2018-09-11T03:49:45.267Z,0
2018-09-11T03:50:17.276Z,0
2018-09-11T03:50:49.347Z,0
2018-09-11T03:51:21.419Z,0
2018-09-11T03:51:53.491Z,0
2018-09-11T03:52:25.504Z,0
2018-09-11T03:52:57.531Z,0
2018-09-11T03:53:29.597Z,0
2018-09-11T03:54:01.671Z,0
2018-09-11T03:54:33.689Z,0
2018-09-11T03:55:05.736Z,0
2018-09-11T03:55:37.841Z,0
2018-09-11T03:56:09.918Z,0
2018-09-11T03:56:42.003Z,0
2018-09-11T03:57:14.115Z,0
2018-09-11T03:57:46.198Z,0
2018-09-11T03:58:18.246Z,0
2018-09-11T03:58:50.782Z,0
2018-09-11T03:59:22.902Z,0
2018-09-11T03:59:55.023Z,0
2018-09-11T04:00:27.086Z,0
2018-09-11T04:00:59.118Z,0
2018-09-11T04:01:31.212Z,0
2018-09-11T04:02:03.246Z,0
2018-09-11T04:02:35.297Z,0
2018-09-11T04:03:07.379Z,0
2018-09-11T04:03:39.425Z,0
2018-09-11T04:04:11.518Z,0
2018-09-11T04:04:43.585Z,0
2018-09-11T04:05:15.676Z,0
2018-09-11T04:05:48.284Z,0
2018-09-11T04:06:20.359Z,0
2018-09-11T04:06:52.451Z,0
2018-09-11T04:07:24.499Z,0
2018-09-11T04:07:56.555Z,0
2018-09-11T04:08:28.662Z,0
2018-09-11T04:09:00.696Z,0
2018-09-11T04:09:32.773Z,0
2018-09-11T04:10:04.842Z,0
2018-09-11T04:10:36.875Z,0
2018-09-11T04:11:08.948Z,0
2018-09-11T04:11:41.017Z,0
2018-09-11T04:12:13.086Z,0
2018-09-11T04:12:45.159Z,0
2018-09-11T04:13:17.240Z,0
2018-09-11T04:13:49.304Z,0
2018-09-11T04:14:21.352Z,0
2018-09-11T04:14:53.485Z,0
2018-09-11T04:15:25.545Z,0
2018-09-11T04:15:57.619Z,0
2018-09-11T04:16:29.594Z,0
2018-09-11T04:17:01.734Z,0
2018-09-11T04:17:33.865Z,0
2018-09-11T04:18:05.952Z,0
2018-09-11T04:18:37.953Z,0
2018-09-11T04:19:10.009Z,0
2018-09-11T04:19:42.078Z,0
2018-09-11T04:20:14.094Z,0
2018-09-11T04:20:46.145Z,0
2018-09-11T04:21:18.227Z,0
2018-09-11T04:21:50.320Z,0
2018-09-11T04:22:22.515Z,0
2018-09-11T04:22:54.600Z,0
2018-09-11T04:23:26.807Z,0
2018-09-11T04:23:58.852Z,0
2018-09-11T04:24:30.927Z,0
2018-09-11T04:25:03.058Z,0
2018-09-11T04:25:35.168Z,0
2018-09-11T04:26:07.221Z,0
2018-09-11T04:26:39.266Z,0
2018-09-11T04:27:11.342Z,0
2018-09-11T04:27:43.528Z,0
2018-09-11T04:28:15.582Z,0
2018-09-11T04:28:47.632Z,0
2018-09-11T04:29:19.718Z,0
2018-09-11T04:29:51.762Z,0
2018-09-11T04:30:23.787Z,0
2018-09-11T04:30:55.835Z,0
2018-09-11T04:31:27.905Z,0
2018-09-11T04:31:59.994Z,0
2018-09-11T04:32:32.152Z,0
2018-09-11T04:33:04.182Z,0
2018-09-11T04:33:36.246Z,4
2018-09-11T04:34:08.317Z,4
2018-09-11T04:34:40.314Z,4
2018-09-11T04:35:12.443Z,4
2018-09-11T04:35:44.557Z,4
2018-09-11T04:36:16.615Z,0
2018-09-11T04:36:48.673Z,4
2018-09-11T04:37:20.725Z,4
2018-09-11T04:37:52.779Z,4
2018-09-11T04:38:24.820Z,4
2018-09-11T04:38:56.896Z,8
2018-09-11T04:39:28.984Z,8
2018-09-11T04:40:01.062Z,4
2018-09-11T04:40:33.139Z,8
2018-09-11T04:41:05.260Z,8
2018-09-11T04:41:37.527Z,12
2018-09-11T04:42:09.591Z,12
2018-09-11T04:42:41.622Z,8
2018-09-11T04:43:13.687Z,12
2018-09-11T04:43:45.728Z,12
2018-09-11T04:44:17.805Z,12
2018-09-11T04:44:49.857Z,12
2018-09-11T04:45:21.868Z,16
2018-09-11T04:45:53.915Z,20
2018-09-11T04:46:25.966Z,16
2018-09-11T04:46:58.043Z,20
2018-09-11T04:47:30.102Z,20
2018-09-11T04:48:02.175Z,24
2018-09-11T04:48:34.215Z,24
2018-09-11T04:49:06.232Z,24
2018-09-11T04:49:38.286Z,28
2018-09-11T04:50:10.387Z,28
2018-09-11T04:50:42.476Z,32
2018-09-11T04:51:14.569Z,32
2018-09-11T04:51:46.629Z,32
2018-09-11T04:52:18.688Z,36
2018-09-11T04:52:50.765Z,36
2018-09-11T04:53:22.810Z,40
2018-09-11T04:53:54.848Z,40
2018-09-11T04:54:26.954Z,44
2018-09-11T04:54:59.052Z,48
2018-09-11T04:55:31.218Z,48
2018-09-11T04:56:03.342Z,48
2018-09-11T04:56:35.378Z,52
2018-09-11T04:57:07.442Z,52
2018-09-11T04:57:39.586Z,56
2018-09-11T04:58:11.624Z,60
2018-09-11T04:58:43.699Z,64
2018-09-11T04:59:15.711Z,68
2018-09-11T04:59:47.790Z,72
2018-09-11T05:00:19.929Z,72
2018-09-11T05:00:52.046Z,76
2018-09-11T05:01:24.117Z,80
2018-09-11T05:01:56.138Z,84
2018-09-11T05:02:28.174Z,84
2018-09-11T05:03:00.220Z,88
2018-09-11T05:03:32.258Z,92
2018-09-11T05:04:04.300Z,96
2018-09-11T05:04:36.383Z,100
2018-09-11T05:05:08.506Z,100
2018-09-11T05:05:40.569Z,104
2018-09-11T05:06:12.609Z,108
2018-09-11T05:06:44.716Z,116
2018-09-11T05:07:16.786Z,116
2018-09-11T05:07:48.823Z,120
2018-09-11T05:08:20.903Z,124
2018-09-11T05:08:52.938Z,128
2018-09-11T05:09:24.947Z,128
2018-09-11T05:09:56.991Z,132
2018-09-11T05:10:29.043Z,136
2018-09-11T05:11:01.080Z,140
2018-09-11T05:11:33.141Z,144
2018-09-11T05:12:05.185Z,148
2018-09-11T05:12:37.359Z,148
2018-09-11T05:13:09.426Z,152
2018-09-11T05:13:41.605Z,156
2018-09-11T05:14:13.644Z,156
2018-09-11T05:14:45.705Z,156
2018-09-11T05:15:17.823Z,156
2018-09-11T05:15:49.904Z,160
2018-09-11T05:16:21.945Z,160
2018-09-11T05:16:53.958Z,164
2018-09-11T05:17:25.969Z,168
2018-09-11T05:17:57.969Z,168
2018-09-11T05:18:30.047Z,172
2018-09-11T05:19:02.184Z,172
2018-09-11T05:19:34.179Z,172
2018-09-11T05:20:06.232Z,180
2018-09-11T05:20:38.257Z,192
2018-09-11T05:21:10.276Z,200
2018-09-11T05:21:42.249Z,204
2018-09-11T05:22:14.271Z,208
2018-09-11T05:22:46.323Z,216
2018-09-11T05:23:18.299Z,224
2018-09-11T05:23:50.377Z,232
2018-09-11T05:24:22.414Z,244
2018-09-11T05:24:54.472Z,248
2018-09-11T05:25:26.583Z,252
2018-09-11T05:25:58.630Z,256
2018-09-11T05:26:30.667Z,256
2018-09-11T05:27:02.760Z,256
2018-09-11T05:27:34.910Z,252
2018-09-11T05:28:06.871Z,252
2018-09-11T05:28:38.996Z,256
2018-09-11T05:29:11.139Z,260
2018-09-11T05:29:43.188Z,264
2018-09-11T05:30:15.274Z,260
2018-09-11T05:30:47.297Z,264
2018-09-11T05:31:19.359Z,272
2018-09-11T05:31:51.383Z,284
2018-09-11T05:32:23.449Z,296
2018-09-11T05:32:55.512Z,308
2018-09-11T05:33:27.576Z,324
2018-09-11T05:33:59.606Z,336
2018-09-11T05:34:31.642Z,348
2018-09-11T05:35:03.734Z,360
2018-09-11T05:35:36.141Z,368
2018-09-11T05:36:08.188Z,380
2018-09-11T05:36:40.284Z,396
2018-09-11T05:37:12.338Z,404
2018-09-11T05:37:44.403Z,424
2018-09-11T05:38:16.432Z,436
2018-09-11T05:38:48.486Z,444
2018-09-11T05:39:20.462Z,452
2018-09-11T05:39:52.533Z,460
2018-09-11T05:40:24.569Z,468
2018-09-11T05:40:56.664Z,480
2018-09-11T05:41:28.721Z,492
2018-09-11T05:42:00.763Z,500
2018-09-11T05:42:32.844Z,528
2018-09-11T05:43:05.610Z,568
2018-09-11T05:43:37.685Z,620
2018-09-11T05:44:09.732Z,668
2018-09-11T05:44:41.818Z,716
2018-09-11T05:45:13.858Z,756
2018-09-11T05:45:46.003Z,796
2018-09-11T05:46:18.015Z,820
2018-09-11T05:46:50.111Z,820
2018-09-11T05:47:22.656Z,808
2018-09-11T05:47:54.680Z,796
2018-09-11T05:48:26.767Z,804
2018-09-11T05:48:58.823Z,808
2018-09-11T05:49:30.873Z,772
2018-09-11T05:50:02.906Z,748
2018-09-11T05:50:35.002Z,752
2018-09-11T05:51:07.078Z,772
2018-09-11T05:51:39.122Z,808
2018-09-11T05:52:11.172Z,840
2018-09-11T05:52:43.263Z,872
2018-09-11T05:53:15.338Z,948
2018-09-11T05:53:47.416Z,1060
2018-09-11T05:54:19.484Z,968
2018-09-11T05:54:51.530Z,1060
2018-09-11T05:55:23.565Z,1008
2018-09-11T05:55:55.583Z,1176
2018-09-11T05:56:27.630Z,1024
2018-09-11T05:56:59.668Z,1192
2018-09-11T05:57:31.728Z,1124
2018-09-11T05:58:03.804Z,1272
2018-09-11T05:58:35.860Z,1156
2018-09-11T05:59:07.963Z,1372
2018-09-11T05:59:40.003Z,1296
2018-09-11T06:00:11.992Z,1220
2018-09-11T06:00:44.190Z,1144
2018-09-11T06:01:16.254Z,1108
2018-09-11T06:01:48.306Z,1088
2018-09-11T06:02:20.357Z,1108
2018-09-11T06:02:52.405Z,1096
2018-09-11T06:03:24.464Z,1372
2018-09-11T06:03:56.469Z,1140
2018-09-11T06:04:28.520Z,1192
2018-09-11T06:05:00.628Z,1336
2018-09-11T06:05:32.846Z,1796
2018-09-11T06:06:04.853Z,1896
2018-09-11T06:06:36.984Z,2384
2018-09-11T06:07:08.980Z,2284
2018-09-11T06:07:41.039Z,2540
2018-09-11T06:08:13.115Z,2588
2018-09-11T06:08:45.191Z,2576
2018-09-11T06:09:17.308Z,2504
2018-09-11T06:09:49.424Z,2380
2018-09-11T06:10:21.585Z,2508
2018-09-11T06:10:53.663Z,1960
2018-09-11T06:11:25.705Z,1260
2018-09-11T06:11:57.730Z,1192
2018-09-11T06:12:29.889Z,1132
2018-09-11T06:13:01.908Z,1108
2018-09-11T06:13:33.949Z,1068
2018-09-11T06:14:05.996Z,1392
2018-09-11T06:14:38.024Z,996
2018-09-11T06:15:10.037Z,996
2018-09-11T06:15:42.095Z,1040
2018-09-11T06:16:14.163Z,1096
2018-09-11T06:16:46.164Z,1556
2018-09-11T06:17:18.210Z,2376
2018-09-11T06:17:50.272Z,1872
2018-09-11T06:18:22.330Z,2572
2018-09-11T06:18:54.361Z,2648
2018-09-11T06:19:26.402Z,2380
2018-09-11T06:19:58.410Z,1520
2018-09-11T06:20:30.527Z,1180
2018-09-11T06:21:02.569Z,1240
2018-09-11T06:21:34.644Z,2448
2018-09-11T06:22:06.678Z,1596
2018-09-11T06:22:38.755Z,2516
2018-09-11T06:23:10.777Z,2620
2018-09-11T06:23:42.830Z,2072
2018-09-11T06:24:14.833Z,2468
2018-09-11T06:24:46.887Z,2084
2018-09-11T06:25:18.983Z,2784
2018-09-11T06:25:51.146Z,2780
2018-09-11T06:26:24.142Z,2732
2018-09-11T06:26:56.218Z,2748
2018-09-11T06:27:28.291Z,2672
2018-09-11T06:28:00.326Z,2812
2018-09-11T06:28:32.437Z,2840
2018-09-11T06:29:04.630Z,2268
2018-09-11T06:29:36.744Z,2408
2018-09-11T06:30:08.808Z,2388
2018-09-11T06:30:40.872Z,1812
2018-09-11T06:31:12.971Z,2896
2018-09-11T06:31:45.028Z,2764
2018-09-11T06:32:17.142Z,1216
2018-09-11T06:32:49.211Z,2384
2018-09-11T06:33:21.260Z,1408
2018-09-11T06:33:53.460Z,1892
2018-09-11T06:34:25.627Z,2384
2018-09-11T06:34:57.795Z,2176
2018-09-11T06:35:30.002Z,1720
2018-09-11T06:36:02.062Z,1964
2018-09-11T06:36:34.239Z,2248
2018-09-11T06:37:06.258Z,2864
2018-09-11T06:37:38.278Z,3028
2018-09-11T06:38:10.349Z,3060
2018-09-11T06:38:42.372Z,3016
2018-09-11T06:39:14.422Z,2976
2018-09-11T06:39:46.507Z,2976
2018-09-11T06:40:18.517Z,2988
2018-09-11T06:40:50.672Z,3076
2018-09-11T06:41:22.875Z,3064
2018-09-11T06:41:54.916Z,3028
2018-09-11T06:42:26.965Z,3068
2018-09-11T06:42:59.026Z,3072
2018-09-11T06:43:31.024Z,3104
2018-09-11T06:44:03.121Z,3140
2018-09-11T06:44:35.171Z,2876
2018-09-11T06:45:07.284Z,2884
2018-09-11T06:45:39.357Z,3064
2018-09-11T06:46:11.415Z,3120
2018-09-11T06:46:43.497Z,3128
2018-09-11T06:47:15.598Z,3116
2018-09-11T06:47:48.367Z,3252
2018-09-11T06:48:20.409Z,3228
2018-09-11T06:48:52.524Z,3248
2018-09-11T06:49:24.587Z,3216
2018-09-11T06:49:56.639Z,3228
2018-09-11T06:50:28.641Z,3288
2018-09-11T06:51:00.700Z,3296
2018-09-11T06:51:32.783Z,3120
2018-09-11T06:52:04.832Z,3216
2018-09-11T06:52:36.886Z,3280
2018-09-11T06:53:08.939Z,3308
2018-09-11T06:53:40.994Z,3208
2018-09-11T06:54:13.051Z,3372
2018-09-11T06:54:45.516Z,3392
2018-09-11T06:55:17.621Z,3400
2018-09-11T06:55:49.921Z,3328
2018-09-11T06:56:21.980Z,3356
2018-09-11T06:56:54.040Z,3368
2018-09-11T06:57:26.087Z,3340
2018-09-11T06:57:58.178Z,3500
2018-09-11T06:58:30.291Z,3488
2018-09-11T06:59:02.797Z,3464
2018-09-11T06:59:34.840Z,3496
2018-09-11T07:00:06.894Z,3596
2018-09-11T07:00:39.057Z,3536
2018-09-11T07:01:11.165Z,3536
2018-09-11T07:01:43.231Z,3512
2018-09-11T07:02:15.346Z,3604
2018-09-11T07:02:47.543Z,3628
2018-09-11T07:03:19.660Z,3616
2018-09-11T07:03:51.729Z,3632
2018-09-11T07:04:23.799Z,3724
2018-09-11T07:04:55.885Z,3684
2018-09-11T07:05:27.952Z,3664
2018-09-11T07:06:00.079Z,3780
2018-09-11T07:06:32.299Z,3780
2018-09-11T07:07:04.444Z,3544
2018-09-11T07:07:36.533Z,3664
2018-09-11T07:08:08.635Z,3740
2018-09-11T07:08:40.706Z,3568
2018-09-11T07:09:12.780Z,3604
2018-09-11T07:09:44.855Z,3516
2018-09-11T07:10:16.928Z,3572
2018-09-11T07:10:49.009Z,3776
2018-09-11T07:11:21.104Z,3896
2018-09-11T07:11:53.202Z,4032
2018-09-11T07:12:25.252Z,4128
2018-09-11T07:12:57.417Z,4152
2018-09-11T07:13:29.457Z,4128
2018-09-11T07:14:01.507Z,4156
2018-09-11T07:14:33.735Z,4052
2018-09-11T07:15:05.845Z,4112
2018-09-11T07:15:37.979Z,4136
2018-09-11T07:16:10.015Z,4204
2018-09-11T07:16:42.019Z,3988
2018-09-11T07:17:14.081Z,3936
2018-09-11T07:17:46.200Z,3900
2018-09-11T07:18:18.371Z,4144
2018-09-11T07:18:50.483Z,4304
2018-09-11T07:19:22.553Z,4260
2018-09-11T07:19:54.805Z,4160
2018-09-11T07:20:26.937Z,4192
2018-09-11T07:20:58.830Z,4036
2018-09-11T07:21:30.896Z,4264
2018-09-11T07:22:02.987Z,4184
2018-09-11T07:22:35.047Z,4352
2018-09-11T07:23:07.115Z,4308
2018-09-11T07:23:39.258Z,4180
2018-09-11T07:24:11.342Z,4100
2018-09-11T07:24:43.387Z,4204
2018-09-11T07:25:15.472Z,4176
2018-09-11T07:25:48.485Z,4132
2018-09-11T07:26:20.580Z,3748
2018-09-11T07:26:52.634Z,3576
2018-09-11T07:27:24.864Z,3368
2018-09-11T07:27:56.911Z,3572
2018-09-11T07:28:28.961Z,2092
2018-09-11T07:29:01.034Z,4116
2018-09-11T07:29:33.146Z,2544
2018-09-11T07:30:05.214Z,4116
2018-09-11T07:30:37.246Z,4368
2018-09-11T07:31:09.326Z,4128
2018-09-11T07:31:41.322Z,3472
2018-09-11T07:32:13.417Z,2228
2018-09-11T07:32:45.471Z,3244
2018-09-11T07:33:17.629Z,3120
2018-09-11T07:33:50.397Z,3804
2018-09-11T07:34:22.422Z,4020
2018-09-11T07:34:54.570Z,4572
2018-09-11T07:35:26.594Z,4756
2018-09-11T07:35:58.690Z,4900
2018-09-11T07:36:30.855Z,3956
2018-09-11T07:37:02.915Z,2728
2018-09-11T07:37:34.960Z,3188
2018-09-11T07:38:07.102Z,2592
2018-09-11T07:38:39.159Z,2564